Kent City, MI (49330)

6:30 AM EST on December 04, 2016 (GMT -0500)
Indian Lakes Road | | Change Station

Elev 784 ft 43.20 °N, 85.71 °W | Updated 8 minutes ago

Overcast
Overcast
34.5 °F
Feels Like 34 °F
N
0.6
Wind Variable Wind from East
Gusts 1.9 mph

Today
High -- | Low -- °F
--% Chance of Precip.
Yesterday
High -- | Low -- °F
Precip. -- in
Pressure 30.18 in
Visibility 10.0 miles
Clouds Overcast 2900 ft
Windchill 34 °F
Dew Point 30 °F
Humidity 84%
Rainfall 0.00 in
Snow Depth Not available.
7:58 AM 5:07 PM
Waxing Crescent, 22% visible
METAR KFFX 041114Z AUTO 13005KT 10SM OVC029 00/M03 A3018 RMK AO2 T00031027
Pressure 30.18 in
Visibility 10.0 miles
Clouds Overcast 2900 ft
Windchill 34 °F
Dew Point 30 °F
Humidity 84%
Rainfall 0.00 in
Snow Depth Not available.
7:58 AM 5:07 PM
Waxing Crescent, 22% visible
METAR KFFX 041114Z AUTO 13005KT 10SM OVC029 00/M03 A3018 RMK AO2 T00031027

10-Day Weather Forecast

Almanac

Astronomy

Dec. 04, 2016 Rise Set
Actual Time
Civil Twilight
Nautical Twilight
Astronomical Twilight
Moon
Length of Visible Light
Length of Day
Tomorrow will be .
, % of the Moon is Illuminated

Today's Extremes

State Highs State Lows

Community

WunderPhotos

Upload Photos

1,955,593 photos uploaded!

WunderBlog® & News

Nearby

Air Quality

  Air Quality AQ Index Pollutant
Not available.

Snow Depth

Station Depth Elevation

Earthquake Activity

City Distance Mag. Time & Date
Minimum magnitude displayed is 2.5.

Coastal Water Temperatures

Place Temperature

Stations

Nearby Weather Stations

Station Location Temp. Windchill Dew Point Humidity Wind Precip. Elev Updated Type
                   

Watches & Warnings

There are currently no watches in effect.